Time;durP1;ratioP1;P1;durP2;ratioP2;P2;SDS_P1;SDS_P2;PMS_P1;PMS_P2;Temp;Humidity;BMP_temperature;BMP_pressure;BME280_temperature;BME280_humidity;BME280_pressure;Samples;Min_cycle;Max_cycle;Signal;HPM_P1;HPM_P2
2023/02/16 00:00:46;;;;;;;;;;;;;;;-144.99;95.67;52525.56;5052850;28;20285;-75
2023/02/16 00:03:14;;;;;;;;;;;;;;;-144.99;95.38;52499.06;5046921;28;19997;-75
2023/02/16 00:05:41;;;;;;;;;;;;;;;-144.99;95.17;52513.31;5048396;28;19998;-74
2023/02/16 00:08:08;;;;;;;;;;;;;;;-144.99;95.33;52517.41;5059004;28;19989;-75
2023/02/16 00:10:37;;;;;;;;;;;;;;;-144.99;95.16;52492.94;5055308;28;20434;-76
2023/02/16 00:15:58;;;;;;;;;;;;;;;-144.99;95.52;52488.84;5035795;28;19943;-79
2023/02/16 00:18:24;;;;;;;;;;;;;;;-144.99;95.33;52460.31;5058334;28;20009;-74
2023/02/16 00:20:51;;;;;;;;;;;;;;;-144.99;95.39;52488.84;5078162;28;19939;-78
2023/02/16 00:23:17;;;;;;;;;;;;;;;-144.99;95.66;52480.72;5063758;28;19944;-75
2023/02/16 00:25:45;;;;;;;;;;;;;;;-144.99;95.24;52476.63;5048837;28;19963;-74
2023/02/16 00:28:14;;;;;;;;;;;;;;;-144.99;95.48;52513.31;5050958;28;19944;-74
2023/02/16 00:30:40;;;;;;;;;;;;;;;-144.99;95.23;52470.50;5061909;28;19997;-73
2023/02/16 00:33:13;;;;;;;;;;;;;;;-144.99;95.43;52509.25;5050089;28;20003;-73
2023/02/16 00:35:40;;;;;;;;;;;;;;;-144.99;95.95;52472.56;5054659;28;20025;-74
2023/02/16 00:38:06;;;;;;;;;;;;;;;-144.99;95.52;52501.09;5057505;28;19980;-74
2023/02/16 00:40:33;;;;;;;;;;;;;;;-144.99;95.58;52523.50;5056011;28;20308;-73
2023/02/16 00:43:01;;;;;;;;;;;;;;;-144.99;95.47;52460.31;5054324;28;19990;-73
2023/02/16 00:45:28;;;;;;;;;;;;;;;-144.99;95.79;52501.09;5052361;28;20286;-74
2023/02/16 00:47:54;;;;;;;;;;;;;;;-144.99;96.39;52505.16;5055748;28;20411;-71
2023/02/16 00:50:23;;;;;;;;;;;;;;;-144.99;96.83;52509.25;5059744;28;20056;-72
2023/02/16 00:52:50;;;;;;;;;;;;;;;-144.99;96.83;52533.69;5054036;28;19944;-72
2023/02/16 00:55:18;;;;;;;;;;;;;;;-144.99;96.62;52564.28;5049563;28;20450;-73
2023/02/16 00:57:46;;;;;;;;;;;;;;;-144.99;95.95;52505.16;5050735;28;20023;-73
2023/02/16 01:00:17;;;;;;;;;;;;;;;-144.99;95.96;52521.47;5057362;28;19956;-72
2023/02/16 01:02:43;;;;;;;;;;;;;;;-144.99;96.08;52492.94;5049631;28;19977;-71
2023/02/16 01:05:10;;;;;;;;;;;;;;;-144.99;96.15;52503.13;5053276;28;20084;-73
2023/02/16 01:13:05;;;;;;;;;;;;;;;-144.99;97.02;52505.16;5050462;28;20365;-72
2023/02/16 01:15:33;;;;;;;;;;;;;;;-144.99;97.67;52509.25;5050471;28;20044;-73
2023/02/16 01:17:59;;;;;;;;;;;;;;;-144.99;97.19;52492.94;5049640;28;20328;-72
2023/02/16 01:20:27;;;;;;;;;;;;;;;-144.99;97.12;52497.00;5059834;28;19955;-73
2023/02/16 01:22:54;;;;;;;;;;;;;;;-144.99;97.66;52488.84;5054522;28;19965;-73
2023/02/16 01:25:21;;;;;;;;;;;;;;;-144.99;98.11;52529.63;5047993;28;19959;-73
2023/02/16 01:27:47;;;;;;;;;;;;;;;-144.99;98.18;52480.72;5051997;28;19993;-71
2023/02/16 01:30:15;;;;;;;;;;;;;;;-144.99;97.31;52492.94;5054934;28;20509;-71
2023/02/16 01:32:46;;;;;;;;;;;;;;;-144.99;97.22;52513.31;5052687;28;19988;-72
2023/02/16 01:35:12;;;;;;;;;;;;;;;-144.99;96.33;52492.94;5052963;28;19965;-75
2023/02/16 01:37:39;;;;;;;;;;;;;;;-144.99;96.96;52513.31;5064669;28;19976;-74
2023/02/16 01:40:06;;;;;;;;;;;;;;;-144.99;96.88;52513.31;5077465;28;19960;-74
2023/02/16 01:42:36;;;;;;;;;;;;;;;-144.99;96.91;52497.00;5043441;28;19956;-73
2023/02/16 01:45:04;;;;;;;;;;;;;;;-144.99;97.09;52521.47;5046169;28;20001;-73
2023/02/16 01:47:34;;;;;;;;;;;;;;;-144.99;96.80;52554.09;5051332;28;19949;-73
2023/02/16 01:50:07;;;;;;;;;;;;;;;-144.99;96.56;52488.84;5050006;28;19959;-73
2023/02/16 01:52:37;;;;;;;;;;;;;;;-144.99;96.47;52521.47;5049664;28;19938;-73
2023/02/16 01:55:07;;;;;;;;;;;;;;;-144.99;96.54;52505.16;5045967;28;19973;-73
2023/02/16 01:57:37;;;;;;;;;;;;;;;-144.99;96.66;52547.97;5052021;28;20420;-75
2023/02/16 02:00:07;;;;;;;;;;;;;;;-144.99;96.65;52521.47;5050010;28;19992;-74
2023/02/16 02:02:34;;;;;;;;;;;;;;;-144.99;97.31;52511.28;5053734;28;19944;-74
2023/02/16 02:08:03;;;;;;;;;;;;;;;-144.99;96.98;52497.00;5014268;28;19950;-73
2023/02/16 02:10:34;;;;;;;;;;;;;;;-144.99;96.92;52499.06;5055062;28;20523;-74
2023/02/16 02:13:04;;;;;;;;;;;;;;;-144.99;97.03;52497.00;5055073;28;19982;-74
2023/02/16 02:15:32;;;;;;;;;;;;;;;-144.99;97.01;52484.78;5060551;28;19984;-71
2023/02/16 02:17:58;;;;;;;;;;;;;;;-144.99;96.91;52476.63;5078473;28;19925;-73
2023/02/16 02:23:29;;;;;;;;;;;;;;;-144.99;96.93;52513.31;5066934;28;19955;-72
2023/02/16 02:23:32;;;;;;;;;;;;;;;-144.99;97.95;52519.44;5054153;28;19946;-70
2023/02/16 02:26:25;;;;;;;;;;;;;;;-144.99;97.76;52509.25;5053284;28;20596;-71
2023/02/16 02:28:56;;;;;;;;;;;;;;;-144.99;97.48;52484.78;5046964;28;19993;-71
2023/02/16 02:31:28;;;;;;;;;;;;;;;-144.99;97.08;52509.25;5041939;28;20060;-71
2023/02/16 02:34:01;;;;;;;;;;;;;;;-144.99;97.32;52513.31;5047216;28;20029;-72
2023/02/16 02:36:32;;;;;;;;;;;;;;;-144.99;97.29;52521.47;5046420;28;19938;-72
2023/02/16 02:39:04;;;;;;;;;;;;;;;-144.99;97.13;52492.94;5057166;28;19972;-74
2023/02/16 02:44:25;;;;;;;;;;;;;;;-144.99;97.46;52503.13;5051871;28;20115;-71
2023/02/16 02:46:52;;;;;;;;;;;;;;;-144.99;97.27;52497.00;5059341;28;19960;-72
2023/02/16 02:49:18;;;;;;;;;;;;;;;-144.99;97.25;52541.84;5053516;28;19963;-73
2023/02/16 02:51:45;;;;;;;;;;;;;;;-144.99;97.27;52501.09;5051488;28;19949;-75
2023/02/16 03:02:33;;;;;;;;;;;;;;;-144.99;97.38;52509.25;5043863;28;20493;-75
2023/02/16 03:05:00;;;;;;;;;;;;;;;-144.99;98.23;52486.81;5046756;28;19967;-74
2023/02/16 03:07:45;;;;;;;;;;;;;;;-144.99;98.06;52509.25;5052430;28;20169;-74
2023/02/16 03:12:56;;;;;;;;;;;;;;;-144.99;97.72;52505.16;5042253;28;20658;-73
2023/02/16 03:15:25;;;;;;;;;;;;;;;-144.99;97.93;52529.63;5045717;28;20040;-72
2023/02/16 03:31:37;;;;;;;;;;;;;;;-144.99;97.94;52509.25;5044763;28;19988;-74
2023/02/16 03:34:04;;;;;;;;;;;;;;;-144.99;97.71;52503.13;5056657;28;19931;-76
2023/02/16 03:36:32;;;;;;;;;;;;;;;-144.99;97.83;52509.25;5069674;28;19942;-73
2023/02/16 03:38:59;;;;;;;;;;;;;;;-144.99;97.65;52513.31;5055773;28;20081;-72
2023/02/16 03:41:26;;;;;;;;;;;;;;;-144.99;97.93;52472.56;5049075;28;20041;-73
2023/02/16 03:43:52;;;;;;;;;;;;;;;-144.99;97.79;52480.72;5048896;28;19984;-73
2023/02/16 03:46:19;;;;;;;;;;;;;;;-144.99;97.83;52529.63;5054244;28;19970;-73
2023/02/16 03:48:47;;;;;;;;;;;;;;;-144.99;97.94;52478.66;5051508;28;19944;-74
2023/02/16 03:51:13;;;;;;;;;;;;;;;-144.99;97.81;52501.09;5049058;28;19990;-74
2023/02/16 03:53:39;;;;;;;;;;;;;;;-144.99;98.14;52505.16;5047076;28;19943;-74
2023/02/16 03:56:06;;;;;;;;;;;;;;;-144.99;98.06;52488.84;5060181;28;19957;-74
2023/02/16 03:58:32;;;;;;;;;;;;;;;-144.99;98.28;52562.25;5046508;28;19941;-74
2023/02/16 04:00:59;;;;;;;;;;;;;;;-144.99;98.36;52517.41;5041582;28;19961;-77
2023/02/16 04:03:26;;;;;;;;;;;;;;;-144.99;97.84;52525.56;5048719;28;19963;-75
2023/02/16 04:05:55;;;;;;;;;;;;;;;-144.99;97.69;52505.16;5052673;28;20068;-76
2023/02/16 04:08:21;;;;;;;;;;;;;;;-144.99;97.78;52531.66;5057793;28;20381;-73
2023/02/16 04:10:48;;;;;;;;;;;;;;;-144.99;97.51;52499.06;5047132;28;19962;-76
2023/02/16 04:13:13;;;;;;;;;;;;;;;-144.99;97.47;52513.31;5075442;28;19968;-80
2023/02/16 04:15:40;;;;;;;;;;;;;;;-144.99;97.19;52507.19;5059712;28;19944;-76
2023/02/16 04:18:07;;;;;;;;;;;;;;;-144.99;97.34;52509.25;5054770;28;20340;-74
2023/02/16 04:20:34;;;;;;;;;;;;;;;-144.99;97.20;52521.47;5053056;28;20442;-72
2023/02/16 04:23:02;;;;;;;;;;;;;;;-144.99;97.15;52513.31;5058201;28;19950;-72
2023/02/16 04:25:29;;;;;;;;;;;;;;;-144.99;97.29;52513.31;5050710;28;19997;-72
2023/02/16 04:27:56;;;;;;;;;;;;;;;-144.99;97.62;52517.41;5046452;28;19987;-73
2023/02/16 04:30:24;;;;;;;;;;;;;;;-144.99;97.32;52523.50;5044397;28;20002;-73
2023/02/16 04:32:50;;;;;;;;;;;;;;;-144.99;97.19;52505.16;5048346;28;20394;-72
2023/02/16 04:35:17;;;;;;;;;;;;;;;-144.99;97.16;52525.56;5057975;28;20405;-72
2023/02/16 04:37:44;;;;;;;;;;;;;;;-144.99;97.33;52488.84;5047460;28;20418;-72
2023/02/16 04:40:15;;;;;;;;;;;;;;;-144.99;97.13;52497.00;5043036;28;20053;-72
2023/02/16 04:42:42;;;;;;;;;;;;;;;-144.99;97.13;52511.28;5051395;28;19939;-73
2023/02/16 04:45:09;;;;;;;;;;;;;;;-144.99;97.23;52525.56;5044404;28;20009;-73
2023/02/16 04:47:36;;;;;;;;;;;;;;;-144.99;97.31;52533.69;5049919;28;20050;-72
2023/02/16 04:50:03;;;;;;;;;;;;;;;-144.99;96.97;52492.94;5054358;28;20009;-74
2023/02/16 04:52:29;;;;;;;;;;;;;;;-144.99;97.24;52468.47;5077778;28;20056;-72
2023/02/16 04:54:56;;;;;;;;;;;;;;;-144.99;96.72;52513.31;5055138;28;20390;-74
2023/02/16 04:57:24;;;;;;;;;;;;;;;-144.99;97.06;52515.34;5054968;28;20010;-75
2023/02/16 04:59:51;;;;;;;;;;;;;;;-144.99;96.89;52529.63;5054814;28;20394;-75
2023/02/16 05:02:17;;;;;;;;;;;;;;;-144.99;96.82;52517.41;5056952;28;19988;-77
2023/02/16 05:04:43;;;;;;;;;;;;;;;-144.99;97.42;52484.78;5064280;28;20039;-75
2023/02/16 05:07:10;;;;;;;;;;;;;;;-144.99;96.61;52480.72;5052449;28;20061;-78
2023/02/16 05:09:36;;;;;;;;;;;;;;;-144.99;96.47;52488.84;5078524;22;19964;-78
2023/02/16 05:14:48;;;;;;;;;;;;;;;-144.99;96.49;52527.59;5078002;28;20040;-81
2023/02/16 05:17:16;;;;;;;;;;;;;;;-144.99;96.78;52503.13;5086215;28;20035;-75
2023/02/16 05:19:44;;;;;;;;;;;;;;;-144.99;96.54;52501.09;5077424;28;20050;-75
2023/02/16 05:22:11;;;;;;;;;;;;;;;-144.99;96.60;52521.47;5058481;28;20416;-76
2023/02/16 05:24:37;;;;;;;;;;;;;;;-144.99;96.45;52513.31;5060373;28;20027;-77
2023/02/16 05:27:05;;;;;;;;;;;;;;;-144.99;96.20;52517.41;5057457;28;20021;-79
2023/02/16 05:29:32;;;;;;;;;;;;;;;-144.99;96.42;52517.41;5075848;28;20070;-76
2023/02/16 05:32:00;;;;;;;;;;;;;;;-144.99;95.98;52509.25;5085265;28;20021;-77
2023/02/16 05:34:26;;;;;;;;;;;;;;;-144.99;96.01;52492.94;5062245;28;20035;-82
2023/02/16 05:36:53;;;;;;;;;;;;;;;-144.99;95.56;52497.00;5065220;28;20048;-77
2023/02/16 05:39:20;;;;;;;;;;;;;;;-144.99;95.77;52529.63;5055252;28;19962;-77
2023/02/16 05:41:47;;;;;;;;;;;;;;;-144.99;95.55;52533.69;5068595;28;20067;-77
2023/02/16 05:44:13;;;;;;;;;;;;;;;-144.99;95.89;52517.41;5070523;28;19950;-80
2023/02/16 05:46:40;;;;;;;;;;;;;;;-144.99;95.28;52505.16;5066886;28;19981;-76
2023/02/16 05:49:08;;;;;;;;;;;;;;;-144.99;96.56;52525.56;5076368;28;19942;-77
2023/02/16 05:51:35;;;;;;;;;;;;;;;-144.99;96.63;52501.09;5071960;28;19965;-76
2023/02/16 05:54:01;;;;;;;;;;;;;;;-144.99;96.16;52533.69;5064722;28;20068;-77
2023/02/16 05:56:28;;;;;;;;;;;;;;;-144.99;96.10;52501.09;5066972;28;19990;-75
2023/02/16 05:58:55;;;;;;;;;;;;;;;-144.99;96.17;52505.16;5057973;28;20035;-76
2023/02/16 06:01:21;;;;;;;;;;;;;;;-144.99;95.88;52521.47;5065600;28;20148;-76
2023/02/16 06:03:48;;;;;;;;;;;;;;;-144.99;96.02;52521.47;5066394;28;20017;-74
2023/02/16 06:06:15;;;;;;;;;;;;;;;-144.99;95.98;52537.78;5063833;28;20401;-77
2023/02/16 06:08:42;;;;;;;;;;;;;;;-144.99;95.96;52529.63;5060722;28;20032;-79
2023/02/16 06:11:34;;;;;;;;;;;;;;;-144.99;96.35;52527.59;5060931;28;20295;-75
2023/02/16 06:13:58;;;;;;;;;;;;;;;-144.99;96.50;52556.13;5068895;28;20318;-78
2023/02/16 06:16:25;;;;;;;;;;;;;;;-144.99;96.07;52537.78;5071091;28;19972;-80
2023/02/16 06:18:51;;;;;;;;;;;;;;;-144.99;96.19;52505.16;5071454;28;19966;-81
2023/02/16 06:21:20;;;;;;;;;;;;;;;-144.99;96.16;52537.78;5068974;28;20201;-80
2023/02/16 06:23:46;;;;;;;;;;;;;;;-144.99;96.21;52488.84;5071036;28;20324;-82
2023/02/16 06:26:13;;;;;;;;;;;;;;;-144.99;95.95;52501.09;5070921;28;19942;-80
2023/02/16 06:28:39;;;;;;;;;;;;;;;-144.99;95.71;52476.63;4374798;28;10020716;-80
2023/02/16 06:31:06;;;;;;;;;;;;;;;-144.99;95.65;52552.03;5061199;28;20257;-80
2023/02/16 06:33:33;;;;;;;;;;;;;;;-144.99;95.63;52499.06;5069656;28;19975;-82
2023/02/16 06:35:59;;;;;;;;;;;;;;;-144.99;96.16;52517.41;5080666;28;19998;-80
2023/02/16 06:38:27;;;;;;;;;;;;;;;-144.99;96.19;52529.63;5061844;28;19986;-80
2023/02/16 06:40:54;;;;;;;;;;;;;;;-144.99;96.00;52488.84;5071510;28;19996;-81
2023/02/16 06:43:21;;;;;;;;;;;;;;;-144.99;95.83;52525.56;5073760;28;19953;-78
2023/02/16 06:45:48;;;;;;;;;;;;;;;-144.99;96.02;52517.41;5073434;28;20447;-81
2023/02/16 06:48:14;;;;;;;;;;;;;;;-144.99;96.00;52476.63;5073180;28;20005;-82
2023/02/16 06:50:41;;;;;;;;;;;;;;;-144.99;95.96;52499.06;5058911;28;20077;-76
2023/02/16 06:53:07;;;;;;;;;;;;;;;-144.99;95.98;52501.09;5055431;28;20007;-79
2023/02/16 06:55:36;;;;;;;;;;;;;;;-144.99;95.82;52509.25;5063083;28;19941;-79
2023/02/16 06:58:02;;;;;;;;;;;;;;;-144.99;95.53;52529.63;5065575;28;19950;-81
2023/02/16 07:00:29;;;;;;;;;;;;;;;-144.99;95.55;52519.44;5083741;28;19970;-84
2023/02/16 07:02:56;;;;;;;;;;;;;;;-144.99;95.37;52507.19;5074048;28;20419;-80
2023/02/16 07:05:22;;;;;;;;;;;;;;;-144.99;95.09;52521.47;5061492;28;20094;-77
2023/02/16 07:07:48;;;;;;;;;;;;;;;-144.99;94.90;52521.47;5067422;28;20019;-80
2023/02/16 07:10:15;;;;;;;;;;;;;;;-144.99;94.71;52488.84;5062413;28;19995;-81
2023/02/16 07:12:43;;;;;;;;;;;;;;;-144.99;94.90;52533.69;5063818;28;19968;-82
2023/02/16 07:15:09;;;;;;;;;;;;;;;-144.99;94.62;52505.16;5063083;28;20012;-83
2023/02/16 07:17:36;;;;;;;;;;;;;;;-144.99;94.28;52476.63;5060878;28;20398;-83
2023/02/16 07:20:04;;;;;;;;;;;;;;;-144.99;94.22;52537.78;5060389;28;19968;-79
2023/02/16 07:22:30;;;;;;;;;;;;;;;-144.99;94.21;52501.09;5060471;28;20390;-80
2023/02/16 07:24:57;;;;;;;;;;;;;;;-144.99;94.23;52545.94;5062785;28;19945;-82
2023/02/16 07:27:25;;;;;;;;;;;;;;;-144.99;94.16;52545.94;5057525;28;19959;-79
2023/02/16 07:29:53;;;;;;;;;;;;;;;-144.99;94.17;52517.41;5063657;28;19989;-81
2023/02/16 07:32:19;;;;;;;;;;;;;;;-144.99;94.08;52564.28;5058899;28;19957;-80
2023/02/16 07:34:45;;;;;;;;;;;;;;;-144.99;94.05;52464.41;5073918;28;19933;-85
2023/02/16 07:37:12;;;;;;;;;;;;;;;-144.99;93.93;52511.28;5074730;28;20328;-78
2023/02/16 07:39:38;;;;;;;;;;;;;;;-144.99;93.85;52488.84;5066277;28;20249;-78
2023/02/16 07:42:05;;;;;;;;;;;;;;;-144.99;93.85;52486.81;5066544;28;19996;-77
2023/02/16 07:44:33;;;;;;;;;;;;;;;-144.99;93.71;52519.44;5062941;28;19946;-80
2023/02/16 07:47:00;;;;;;;;;;;;;;;-144.99;93.83;52499.06;5070582;28;20068;-79
2023/02/16 07:49:27;;;;;;;;;;;;;;;-144.99;94.13;52497.00;5066739;28;19945;-79
2023/02/16 07:51:54;;;;;;;;;;;;;;;-144.99;93.66;52492.94;5059175;28;19941;-78
2023/02/16 07:54:20;;;;;;;;;;;;;;;-144.99;93.33;52492.94;5057511;28;20481;-81
2023/02/16 07:56:46;;;;;;;;;;;;;;;-144.99;93.78;52521.47;5062871;28;20022;-79
2023/02/16 07:59:15;;;;;;;;;;;;;;;-144.99;93.19;52492.94;5059391;28;20001;-78
2023/02/16 08:01:41;;;;;;;;;;;;;;;-144.99;93.07;52533.69;5057886;28;20334;-77
2023/02/16 08:04:09;;;;;;;;;;;;;;;-144.99;92.80;52505.16;5068726;28;19998;-79
2023/02/16 08:06:36;;;;;;;;;;;;;;;-144.99;92.36;52550.00;5060364;28;19946;-79
2023/02/16 08:09:03;;;;;;;;;;;;;;;-144.99;92.05;52529.63;5082278;28;19916;-82
2023/02/16 08:11:29;;;;;;;;;;;;;;;-144.99;91.67;52529.63;5091947;28;20418;-79
2023/02/16 08:13:58;;;;;;;;;;;;;;;-144.99;91.47;52492.94;5065320;28;20325;-80
2023/02/16 08:16:26;;;;;;;;;;;;;;;-144.99;91.07;52456.25;5072451;28;20125;-80
2023/02/16 08:18:52;;;;;;;;;;;;;;;-144.99;91.32;52480.72;5068679;28;19941;-79
2023/02/16 08:21:22;;;;;;;;;;;;;;;-144.99;91.25;52452.16;5064240;28;19957;-80
2023/02/16 08:23:52;;;;;;;;;;;;;;;-144.99;90.66;52456.25;5070652;28;19947;-79
2023/02/16 08:26:20;;;;;;;;;;;;;;;-144.99;90.31;52480.72;5070648;28;20035;-82
2023/02/16 08:28:48;;;;;;;;;;;;;;;-144.99;90.39;52484.78;5066474;28;19967;-78
2023/02/16 08:31:15;;;;;;;;;;;;;;;-144.99;90.14;52533.69;5064003;28;20650;-77
2023/02/16 08:33:42;;;;;;;;;;;;;;;-144.99;90.52;52494.97;5069367;28;19996;-78
2023/02/16 08:36:16;;;;;;;;;;;;;;;-144.99;89.97;52488.84;5074786;28;20365;-79
2023/02/16 08:38:44;;;;;;;;;;;;;;;-144.99;89.46;52478.66;5072375;28;19971;-80
2023/02/16 08:41:10;;;;;;;;;;;;;;;-144.99;89.26;52476.63;5068061;28;20648;-78
2023/02/16 08:43:37;;;;;;;;;;;;;;;-144.99;88.92;52537.78;5067573;28;19977;-77
2023/02/16 08:46:06;;;;;;;;;;;;;;;-144.99;88.73;52484.78;5065850;28;19953;-78
2023/02/16 08:48:34;;;;;;;;;;;;;;;-144.99;88.79;52480.72;5071133;28;20391;-78
2023/02/16 08:51:01;;;;;;;;;;;;;;;-144.99;88.71;52492.94;5066122;28;19969;-77
2023/02/16 08:53:31;;;;;;;;;;;;;;;-144.99;88.75;52492.94;5072154;28;20309;-78
2023/02/16 08:56:01;;;;;;;;;;;;;;;-144.99;88.58;52444.03;5070674;28;20413;-79
2023/02/16 08:58:28;;;;;;;;;;;;;;;-144.99;88.66;52464.41;5077004;28;20025;-78
2023/02/16 09:00:54;;;;;;;;;;;;;;;-144.99;88.29;52468.47;5073620;28;20054;-77
2023/02/16 09:03:21;;;;;;;;;;;;;;;-144.99;87.88;52497.00;5071785;28;20006;-77
2023/02/16 09:05:49;;;;;;;;;;;;;;;-144.99;88.06;52484.78;5072393;28;20439;-80
2023/02/16 09:08:15;;;;;;;;;;;;;;;-144.99;88.07;52488.84;5072605;28;20326;-79
2023/02/16 09:10:42;;;;;;;;;;;;;;;-144.99;87.70;52466.44;5060046;28;20300;-76
2023/02/16 09:13:13;;;;;;;;;;;;;;;-144.99;87.49;52488.84;5074290;28;20038;-81
2023/02/16 09:15:40;;;;;;;;;;;;;;;-144.99;87.40;52476.63;5065534;28;20381;-76
2023/02/16 09:18:07;;;;;;;;;;;;;;;-144.99;87.31;52472.56;5063992;28;19952;-79
2023/02/16 09:20:36;;;;;;;;;;;;;;;-144.99;87.24;52476.63;5086661;28;19951;-78
2023/02/16 09:23:02;;;;;;;;;;;;;;;-144.99;87.53;52472.56;5065999;28;20559;-81
2023/02/16 09:25:29;;;;;;;;;;;;;;;-144.99;87.67;52474.59;5064999;28;20071;-83
2023/02/16 09:27:56;;;;;;;;;;;;;;;-144.99;87.28;52474.59;5064527;28;20431;-77
2023/02/16 09:30:24;;;;;;;;;;;;;;;-144.99;87.11;52523.50;5056023;28;20490;-79
2023/02/16 09:32:51;;;;;;;;;;;;;;;-144.99;86.98;52486.81;5062027;28;19951;-77
2023/02/16 09:35:17;;;;;;;;;;;;;;;-144.99;86.84;52505.16;5071833;28;19950;-80
2023/02/16 09:37:44;;;;;;;;;;;;;;;-144.99;86.49;52464.41;5071922;28;19971;-82
2023/02/16 09:40:12;;;;;;;;;;;;;;;-144.99;86.49;52460.31;5066785;28;20236;-79
2023/02/16 09:42:48;;;;;;;;;;;;;;;-144.99;86.97;52448.09;5062838;28;20371;-85
2023/02/16 09:45:17;;;;;;;;;;;;;;;-144.99;86.64;52482.75;5058874;28;19945;-79
2023/02/16 09:47:46;;;;;;;;;;;;;;;-144.99;86.55;52505.16;5061598;28;20119;-78
2023/02/16 09:50:14;;;;;;;;;;;;;;;-144.99;86.05;52492.94;5067380;28;20083;-80
2023/02/16 09:52:45;;;;;;;;;;;;;;;-144.99;86.37;52460.31;5064789;28;19954;-79
2023/02/16 09:55:13;;;;;;;;;;;;;;;-144.99;85.71;52456.25;5081365;28;19980;-85
2023/02/16 09:57:48;;;;;;;;;;;;;;;-144.99;86.02;52494.97;5075084;28;20746;-81
2023/02/16 10:00:22;;;;;;;;;;;;;;;-144.99;86.95;52484.78;5064216;28;19963;-78
2023/02/16 10:02:53;;;;;;;;;;;;;;;-144.99;87.11;52497.00;5055358;28;19948;-81
2023/02/16 10:05:24;;;;;;;;;;;;;;;-144.99;86.98;52517.41;5061973;28;20048;-79
2023/02/16 10:07:55;;;;;;;;;;;;;;;-144.99;87.41;52472.56;5059455;28;19963;-80
2023/02/16 10:10:23;;;;;;;;;;;;;;;-144.99;87.89;52492.94;5065723;28;20041;-78
2023/02/16 10:12:52;;;;;;;;;;;;;;;-144.99;87.90;52492.94;5064413;28;20488;-84
2023/02/16 10:15:21;;;;;;;;;;;;;;;-144.99;88.00;52490.91;5057084;28;20087;-78
2023/02/16 10:17:50;;;;;;;;;;;;;;;-144.99;88.67;52497.00;5059005;28;19984;-81
2023/02/16 10:20:22;;;;;;;;;;;;;;;-144.99;88.48;52476.63;5057480;28;20660;-80
2023/02/16 10:22:50;;;;;;;;;;;;;;;-144.99;88.81;52468.47;5067643;28;20440;-83
2023/02/16 10:25:18;;;;;;;;;;;;;;;-144.99;88.92;52480.72;5057507;28;19960;-82
2023/02/16 10:27:47;;;;;;;;;;;;;;;-144.99;88.99;52488.84;5077846;28;19962;-80
2023/02/16 10:30:15;;;;;;;;;;;;;;;-144.99;89.04;52472.56;5074756;28;19989;-84
2023/02/16 10:32:51;;;;;;;;;;;;;;;-144.99;89.04;52448.09;5082930;28;20159;-78
2023/02/16 10:35:21;;;;;;;;;;;;;;;-144.99;89.40;52454.22;5063941;28;19945;-81
2023/02/16 10:37:55;;;;;;;;;;;;;;;-144.99;89.07;52488.84;5060258;28;19942;-82
2023/02/16 10:40:35;;;;;;;;;;;;;;;-144.99;88.88;52456.25;5053621;28;20063;-81
2023/02/16 10:43:06;;;;;;;;;;;;;;;-144.99;88.53;52497.00;5062199;28;20314;-79
2023/02/16 10:45:36;;;;;;;;;;;;;;;-144.99;88.55;52484.78;5064204;28;20298;-79
2023/02/16 10:48:03;;;;;;;;;;;;;;;-144.99;88.42;52448.09;5062579;28;19984;-78
2023/02/16 10:50:33;;;;;;;;;;;;;;;-144.99;88.57;52450.13;5061567;28;19967;-81
2023/02/16 10:53:01;;;;;;;;;;;;;;;-144.99;87.94;52460.31;5060283;28;19991;-82
2023/02/16 10:55:28;;;;;;;;;;;;;;;-144.99;87.92;52441.97;5063271;28;20012;-79
2023/02/16 10:57:56;;;;;;;;;;;;;;;-144.99;87.53;52464.41;5061663;28;19951;-79
2023/02/16 11:00:26;;;;;;;;;;;;;;;-144.99;87.48;52476.63;5059595;28;20053;-79
2023/02/16 11:02:53;;;;;;;;;;;;;;;-144.99;87.18;52456.25;5062463;28;20032;-79
2023/02/16 11:05:31;;;;;;;;;;;;;;;-144.99;86.82;52448.09;5060960;28;20038;-79
2023/02/16 11:08:00;;;;;;;;;;;;;;;-144.99;86.76;52472.56;5062886;28;20013;-80
2023/02/16 11:10:34;;;;;;;;;;;;;;;-144.99;86.70;52484.78;5103136;22;20222;-75
2023/02/16 11:13:01;;;;;;;;;;;;;;;-144.99;86.69;52486.81;5016405;28;20022;-75
2023/02/16 11:15:27;;;;;;;;;;;;;;;-144.99;86.69;52456.25;5010846;28;20407;-76
2023/02/16 11:17:56;;;;;;;;;;;;;;;-144.99;86.35;52474.59;5036287;28;19946;-77
2023/02/16 11:20:27;;;;;;;;;;;;;;;-144.99;86.21;52476.63;5037056;28;19949;-75
2023/02/16 11:23:12;;;;;;;;;;;;;;;-144.99;86.02;52468.47;5019744;28;19943;-75
2023/02/16 11:25:38;;;;;;;;;;;;;;;-144.99;85.91;52452.16;5016349;28;19942;-73
2023/02/16 11:28:05;;;;;;;;;;;;;;;-144.99;85.82;52444.03;5015641;28;20062;-76
2023/02/16 11:30:33;;;;;;;;;;;;;;;-144.99;86.14;52441.97;5018434;28;19961;-75
2023/02/16 11:33:01;;;;;;;;;;;;;;;-144.99;86.07;52513.31;5019093;28;20047;-76
2023/02/16 11:35:30;;;;;;;;;;;;;;;-144.99;86.53;52464.41;5025457;28;19998;-76
2023/02/16 11:37:58;;;;;;;;;;;;;;;-144.99;86.77;52484.78;5022603;28;20044;-74
2023/02/16 11:40:26;;;;;;;;;;;;;;;-144.99;86.35;52472.56;5018509;28;20056;-74
2023/02/16 11:42:54;;;;;;;;;;;;;;;-144.99;86.28;52462.34;5022414;28;19964;-74
2023/02/16 11:45:23;;;;;;;;;;;;;;;-144.99;85.90;52429.75;5014949;28;19988;-74
2023/02/16 11:47:53;;;;;;;;;;;;;;;-144.99;85.82;52435.88;5027683;28;19994;-74
2023/02/16 11:50:22;;;;;;;;;;;;;;;-144.99;85.93;52439.94;5022121;28;19950;-75
2023/02/16 11:52:49;;;;;;;;;;;;;;;-144.99;86.02;52452.16;5020141;28;19952;-77
2023/02/16 11:55:22;;;;;;;;;;;;;;;-144.99;86.09;52505.16;5029714;28;19932;-77
2023/02/16 11:57:49;;;;;;;;;;;;;;;-144.99;86.33;52460.31;5049277;28;19931;-78
2023/02/16 12:00:17;;;;;;;;;;;;;;;-144.99;86.47;52452.16;5024378;28;19939;-74
2023/02/16 12:03:09;;;;;;;;;;;;;;;-144.99;86.51;52472.56;5027781;28;20222;-73
2023/02/16 12:05:42;;;;;;;;;;;;;;;-144.99;86.51;52494.97;5019566;28;19947;-76
2023/02/16 12:08:14;;;;;;;;;;;;;;;-144.99;86.77;52486.81;5031924;28;20228;-76
2023/02/16 12:10:46;;;;;;;;;;;;;;;-144.99;86.92;52456.25;5020037;28;20331;-75
2023/02/16 12:13:18;;;;;;;;;;;;;;;-144.99;86.74;52472.56;5025241;28;20437;-72
2023/02/16 12:15:47;;;;;;;;;;;;;;;-144.99;86.54;52444.03;5026560;28;20432;-76
2023/02/16 12:18:19;;;;;;;;;;;;;;;-144.99;86.70;52480.72;5033659;28;19950;-76
2023/02/16 12:20:50;;;;;;;;;;;;;;;-144.99;86.81;52456.25;5027261;28;20236;-75
2023/02/16 12:23:25;;;;;;;;;;;;;;;-144.99;86.51;52476.63;5033592;28;20009;-77
2023/02/16 12:26:00;;;;;;;;;;;;;;;-144.99;86.80;52472.56;5026884;28;20403;-75
2023/02/16 12:28:33;;;;;;;;;;;;;;;-144.99;87.06;52480.72;5023825;28;19983;-75
2023/02/16 12:31:08;;;;;;;;;;;;;;;-144.99;87.21;52472.56;5019270;28;20058;-76
2023/02/16 12:33:41;;;;;;;;;;;;;;;-144.99;87.67;52492.94;5019401;28;19939;-75
2023/02/16 12:36:37;;;;;;;;;;;;;;;-144.99;87.90;52466.44;5050363;28;19973;-77
2023/02/16 12:39:10;;;;;;;;;;;;;;;-144.99;87.32;52529.63;4970542;28;19948;-75
2023/02/16 12:41:43;;;;;;;;;;;;;;;-144.99;88.34;52509.25;5014120;28;19959;-73
2023/02/16 12:44:12;;;;;;;;;;;;;;;-144.99;88.12;52448.09;5014896;28;20052;-73
2023/02/16 12:46:41;;;;;;;;;;;;;;;-144.99;88.18;52486.81;5020418;28;20036;-74
2023/02/16 12:49:13;;;;;;;;;;;;;;;-144.99;88.50;52484.78;5027255;28;20058;-75
2023/02/16 12:51:44;;;;;;;;;;;;;;;-144.99;88.74;52468.47;5025977;28;19965;-74
2023/02/16 12:54:16;;;;;;;;;;;;;;;-144.99;89.04;52468.47;5024672;28;19943;-74
2023/02/16 12:56:45;;;;;;;;;;;;;;;-144.99;89.32;52452.16;5025073;28;19981;-76
2023/02/16 12:59:17;;;;;;;;;;;;;;;-144.99;90.21;52456.25;5017432;28;19950;-76
2023/02/16 13:01:45;;;;;;;;;;;;;;;-144.99;90.33;52480.72;5023862;28;19962;-77
2023/02/16 13:04:16;;;;;;;;;;;;;;;-144.99;91.02;52484.78;5027392;28;19953;-74
2023/02/16 13:06:46;;;;;;;;;;;;;;;-144.99;90.92;52484.78;5026631;28;19937;-75
2023/02/16 13:09:19;;;;;;;;;;;;;;;-144.99;91.71;52488.84;5026117;28;20057;-76
2023/02/16 13:11:49;;;;;;;;;;;;;;;-144.99;92.80;52472.56;5018780;28;19964;-78
2023/02/16 13:14:18;;;;;;;;;;;;;;;-144.99;93.08;52452.16;5036185;28;19985;-76